createdAt,value
2023-04-07T00:00:40.153Z,23.38
2023-04-07T00:01:40.204Z,21.93
2023-04-07T00:02:41.371Z,23.16
2023-04-07T00:03:40.347Z,22.84
2023-04-07T00:04:40.218Z,24.44
2023-04-07T00:05:40.198Z,21.19
2023-04-07T00:06:40.170Z,23.36
2023-04-07T00:07:52.228Z,21.20
2023-04-07T00:08:41.152Z,20.10
2023-04-07T00:09:40.160Z,19.19
2023-04-07T00:10:40.149Z,17.96
2023-04-07T00:11:40.146Z,19.18
2023-04-07T00:12:40.121Z,21.68
2023-04-07T00:13:40.144Z,23.97
2023-04-07T00:14:40.121Z,25.03
2023-04-07T00:15:40.141Z,23.62
2023-04-07T00:16:40.111Z,22.15
2023-04-07T00:17:40.185Z,20.27
2023-04-07T00:18:40.099Z,21.92
2023-04-07T00:19:40.099Z,24.36
2023-04-07T00:20:40.076Z,27.00
2023-04-07T00:21:40.087Z,28.27
2023-04-07T00:22:40.077Z,26.38
2023-04-07T00:23:40.056Z,24.76
2023-04-07T00:24:40.061Z,23.99
2023-04-07T00:25:40.097Z,25.02
2023-04-07T00:26:40.141Z,22.80
2023-04-07T00:27:40.137Z,22.02
2023-04-07T00:28:40.167Z,20.23
2023-04-07T00:29:40.182Z,20.45
2023-04-07T00:30:40.211Z,18.24
2023-04-07T00:31:40.356Z,18.93
2023-04-07T00:32:40.320Z,18.34
2023-04-07T00:33:40.283Z,18.81
2023-04-07T00:34:40.317Z,15.07
2023-04-07T00:35:40.349Z,15.24
2023-04-07T00:36:40.350Z,15.87
2023-04-07T00:37:40.379Z,16.66
2023-04-07T00:38:40.421Z,17.21
2023-04-07T00:39:40.446Z,15.33
2023-04-07T00:40:40.483Z,17.40
2023-04-07T00:41:40.492Z,15.61
2023-04-07T00:42:40.539Z,15.90
2023-04-07T00:43:40.542Z,16.10
2023-04-07T00:44:40.551Z,17.50
2023-04-07T00:45:40.619Z,16.10
2023-04-07T00:46:40.702Z,16.06
2023-04-07T00:47:40.666Z,17.05
2023-04-07T00:48:40.671Z,13.87
2023-04-07T00:49:40.706Z,15.23
2023-04-07T00:50:40.724Z,14.97
2023-04-07T00:51:40.765Z,13.97
2023-04-07T00:52:40.784Z,14.70
2023-04-07T00:53:40.795Z,12.55
2023-04-07T00:54:40.843Z,14.32
2023-04-07T00:55:40.859Z,14.47
2023-04-07T00:56:42.490Z,15.01
2023-04-07T00:57:40.869Z,15.92
2023-04-07T00:58:40.889Z,16.31
2023-04-07T00:59:40.858Z,14.35
2023-04-07T01:00:40.864Z,14.47
2023-04-07T01:01:40.922Z,16.04
2023-04-07T01:02:41.043Z,17.41
2023-04-07T01:03:41.170Z,15.77
2023-04-07T01:04:41.061Z,16.27
2023-04-07T01:05:40.833Z,16.92
2023-04-07T01:06:40.811Z,17.93
2023-04-07T01:07:40.815Z,16.76
2023-04-07T01:08:40.811Z,16.02
2023-04-07T01:09:40.812Z,17.45
2023-04-07T01:10:40.813Z,15.60
2023-04-07T01:11:40.775Z,16.91
2023-04-07T01:12:40.767Z,16.20
2023-04-07T01:13:40.778Z,15.11
2023-04-07T01:14:40.775Z,17.04
2023-04-07T01:15:40.769Z,17.08
2023-04-07T01:16:40.826Z,16.73
2023-04-07T01:17:40.750Z,18.91
2023-04-07T01:18:40.728Z,18.12
2023-04-07T01:19:40.749Z,17.20
2023-04-07T01:20:40.712Z,18.05
2023-04-07T01:21:40.699Z,18.27
2023-04-07T01:22:40.707Z,18.38
2023-04-07T01:23:40.840Z,19.10
2023-04-07T01:24:40.704Z,16.88
2023-04-07T01:25:40.703Z,17.23
2023-04-07T01:26:40.688Z,20.22
2023-04-07T01:27:40.672Z,16.08
2023-04-07T01:28:40.676Z,16.32
2023-04-07T01:29:40.660Z,15.73
2023-04-07T01:30:40.646Z,15.05
2023-04-07T01:31:40.660Z,13.38
2023-04-07T01:32:40.654Z,15.56
2023-04-07T01:33:40.641Z,17.39
2023-04-07T01:34:40.657Z,17.75
2023-04-07T01:35:40.612Z,17.34
2023-04-07T01:36:40.684Z,15.26
2023-04-07T01:37:40.618Z,14.84
2023-04-07T01:38:40.621Z,15.16
2023-04-07T01:39:40.612Z,15.54
2023-04-07T01:40:40.589Z,16.30
2023-04-07T01:41:40.606Z,13.49
2023-04-07T01:42:40.576Z,14.66
2023-04-07T01:43:41.665Z,14.88
2023-04-07T01:44:40.570Z,15.35
2023-04-07T01:45:40.561Z,17.74
2023-04-07T01:46:40.613Z,17.63
2023-04-07T01:47:40.558Z,17.34
2023-04-07T01:48:40.585Z,17.26
2023-04-07T01:49:40.508Z,15.94
2023-04-07T01:50:40.515Z,14.22
2023-04-07T01:51:40.519Z,13.88
2023-04-07T01:52:40.521Z,13.34
2023-04-07T01:53:40.521Z,13.41
2023-04-07T01:54:40.493Z,13.20
2023-04-07T01:55:40.491Z,11.57
2023-04-07T01:56:40.507Z,12.91
2023-04-07T01:57:40.463Z,13.03
2023-04-07T01:58:40.467Z,14.27
2023-04-07T01:59:40.482Z,16.34
2023-04-07T02:00:40.455Z,16.84
2023-04-07T02:01:40.932Z,17.46
2023-04-07T02:02:40.711Z,15.42
2023-04-07T02:03:40.678Z,16.51
2023-04-07T02:04:40.604Z,15.91
2023-04-07T02:05:40.617Z,17.29
2023-04-07T02:06:40.617Z,16.31
2023-04-07T02:07:40.662Z,16.61
2023-04-07T02:08:40.669Z,15.33
2023-04-07T02:09:40.691Z,16.21
2023-04-07T02:10:40.739Z,15.62
2023-04-07T02:11:40.758Z,16.17
2023-04-07T02:12:40.800Z,16.39
2023-04-07T02:13:40.832Z,17.99
2023-04-07T02:14:40.836Z,18.69
2023-04-07T02:15:40.871Z,19.24
2023-04-07T02:16:40.962Z,25.13
2023-04-07T02:17:40.956Z,33.60
2023-04-07T02:18:40.971Z,31.54
2023-04-07T02:19:40.980Z,29.70
2023-04-07T02:20:41.017Z,24.53
2023-04-07T02:21:41.034Z,23.83
2023-04-07T02:22:41.067Z,20.69
2023-04-07T02:23:41.120Z,21.49
2023-04-07T02:24:41.126Z,21.43
2023-04-07T02:25:41.171Z,18.05
2023-04-07T02:26:41.190Z,17.64
2023-04-07T02:27:41.201Z,16.91
2023-04-07T02:28:41.236Z,18.81
2023-04-07T02:29:41.313Z,18.70
2023-04-07T02:30:41.309Z,17.03
2023-04-07T02:31:41.366Z,15.17
2023-04-07T02:32:41.470Z,14.30
2023-04-07T02:33:41.422Z,15.76
2023-04-07T02:34:41.412Z,14.94
2023-04-07T02:35:41.449Z,13.27
2023-04-07T02:36:41.549Z,12.76
2023-04-07T02:37:41.523Z,10.29
2023-04-07T02:38:41.546Z,11.77
2023-04-07T02:39:41.563Z,14.28
2023-04-07T02:40:41.596Z,13.67
2023-04-07T02:41:41.615Z,14.06
2023-04-07T02:42:41.674Z,13.30
2023-04-07T02:43:41.671Z,14.66
2023-04-07T02:44:41.698Z,12.45
2023-04-07T02:45:41.760Z,13.06
2023-04-07T02:46:41.761Z,14.72
2023-04-07T02:47:41.812Z,15.72
2023-04-07T02:48:41.834Z,15.33
2023-04-07T02:49:41.839Z,15.74
2023-04-07T02:50:41.883Z,15.40
2023-04-07T02:51:41.906Z,15.75
2023-04-07T02:52:41.952Z,16.03
2023-04-07T02:53:41.968Z,15.62
2023-04-07T02:54:42.010Z,16.98
2023-04-07T02:55:42.026Z,17.43
2023-04-07T02:56:42.060Z,16.76
2023-04-07T02:57:42.090Z,15.47
2023-04-07T02:58:42.126Z,14.53
2023-04-07T02:59:42.155Z,15.18
2023-04-07T03:00:42.231Z,16.32
2023-04-07T03:01:42.309Z,16.50
2023-04-07T03:02:42.364Z,16.34
2023-04-07T03:03:42.403Z,16.76
2023-04-07T03:04:42.328Z,16.75
2023-04-07T03:05:42.339Z,15.75
2023-04-07T03:06:42.380Z,13.92
2023-04-07T03:07:42.388Z,14.15
2023-04-07T03:08:42.421Z,13.48
2023-04-07T03:09:42.467Z,13.55
2023-04-07T03:10:42.500Z,14.02
2023-04-07T03:11:42.492Z,15.53
2023-04-07T03:12:42.522Z,16.78
2023-04-07T03:13:42.555Z,17.09
2023-04-07T03:14:42.580Z,15.54
2023-04-07T03:15:42.634Z,15.68
2023-04-07T03:16:42.684Z,14.49
2023-04-07T03:17:42.719Z,13.09
2023-04-07T03:18:42.703Z,12.53
2023-04-07T03:19:42.735Z,12.37
2023-04-07T03:20:42.738Z,11.38
2023-04-07T03:21:42.782Z,12.41
2023-04-07T03:22:42.808Z,12.33
2023-04-07T03:23:42.817Z,12.06
2023-04-07T03:24:42.838Z,12.20
2023-04-07T03:25:42.898Z,10.92
2023-04-07T03:26:42.907Z,11.08
2023-04-07T03:27:42.934Z,12.75
2023-04-07T03:28:42.946Z,11.47
2023-04-07T03:29:42.986Z,11.05
2023-04-07T03:30:43.027Z,11.19
2023-04-07T03:31:43.062Z,12.02
2023-04-07T03:32:43.089Z,11.40
2023-04-07T03:33:43.078Z,11.92
2023-04-07T03:34:43.100Z,10.83
2023-04-07T03:35:43.165Z,10.69
2023-04-07T03:36:43.146Z,12.03
2023-04-07T03:37:43.171Z,12.47
2023-04-07T03:38:43.197Z,13.73
2023-04-07T03:39:43.227Z,13.90
2023-04-07T03:40:43.238Z,13.71
2023-04-07T03:41:43.270Z,12.13
2023-04-07T03:42:43.280Z,13.39
2023-04-07T03:43:43.304Z,13.37
2023-04-07T03:44:43.332Z,11.63
2023-04-07T03:45:43.361Z,12.44
2023-04-07T03:46:43.434Z,11.65
2023-04-07T03:47:43.420Z,12.60
2023-04-07T03:48:43.418Z,13.04
2023-04-07T03:49:43.442Z,13.91
2023-04-07T03:50:43.468Z,16.77
2023-04-07T03:51:43.509Z,17.76
2023-04-07T03:52:43.511Z,17.72
2023-04-07T03:53:43.536Z,17.02
2023-04-07T03:54:43.574Z,16.19
2023-04-07T03:55:43.601Z,15.99
2023-04-07T03:56:43.606Z,16.22
2023-04-07T03:57:43.659Z,15.72
2023-04-07T03:58:43.697Z,17.42
2023-04-07T03:59:43.710Z,15.62
2023-04-07T04:00:43.727Z,14.69
2023-04-07T04:01:43.779Z,15.64
2023-04-07T04:02:43.915Z,15.01
2023-04-07T04:03:44.045Z,15.25
2023-04-07T04:04:43.865Z,17.91
2023-04-07T04:05:43.827Z,16.42
2023-04-07T04:06:43.876Z,17.04
2023-04-07T04:07:43.880Z,18.60
2023-04-07T04:08:43.918Z,19.87
2023-04-07T04:09:43.934Z,17.65
2023-04-07T04:10:43.971Z,17.74
2023-04-07T04:11:43.976Z,18.27
2023-04-07T04:12:43.993Z,18.45
2023-04-07T04:13:44.031Z,16.13
2023-04-07T04:14:44.050Z,18.01
2023-04-07T04:15:44.097Z,15.94
2023-04-07T04:16:44.101Z,16.64
2023-04-07T04:17:44.149Z,17.69
2023-04-07T04:18:44.148Z,20.28
2023-04-07T04:19:44.156Z,20.92
2023-04-07T04:20:44.185Z,19.99
2023-04-07T04:21:44.218Z,18.75
2023-04-07T04:22:44.224Z,17.09
2023-04-07T04:23:44.253Z,16.64
2023-04-07T04:24:44.291Z,16.32
2023-04-07T04:25:44.328Z,16.05
2023-04-07T04:26:44.355Z,16.96
2023-04-07T04:27:44.378Z,15.64
2023-04-07T04:28:44.390Z,16.94
2023-04-07T04:29:44.428Z,15.34
2023-04-07T04:30:44.483Z,17.06
2023-04-07T04:31:44.630Z,19.12
2023-04-07T04:32:44.619Z,19.39
2023-04-07T04:33:44.565Z,20.12
2023-04-07T04:34:44.592Z,18.30
2023-04-07T04:35:44.616Z,17.02
2023-04-07T04:36:44.683Z,16.18
2023-04-07T04:37:44.656Z,16.24
2023-04-07T04:38:44.684Z,16.69
2023-04-07T04:39:44.701Z,15.86
2023-04-07T04:40:44.738Z,15.75
2023-04-07T04:41:44.775Z,16.41
2023-04-07T04:42:44.800Z,16.83
2023-04-07T04:43:45.276Z,17.65
2023-04-07T04:44:44.855Z,15.96
2023-04-07T04:45:44.856Z,14.67
2023-04-07T04:46:44.931Z,15.92
2023-04-07T04:47:44.965Z,16.51
2023-04-07T04:48:44.929Z,15.86
2023-04-07T04:49:44.957Z,15.36
2023-04-07T04:50:44.997Z,16.77
2023-04-07T04:51:44.999Z,14.35
2023-04-07T04:52:45.038Z,13.33
2023-04-07T04:53:45.055Z,13.78
2023-04-07T04:54:45.082Z,15.36
2023-04-07T04:55:45.105Z,14.89
2023-04-07T04:56:45.117Z,14.14
2023-04-07T04:57:45.172Z,14.55
2023-04-07T04:58:45.153Z,14.72
2023-04-07T04:59:45.191Z,14.83
2023-04-07T05:00:45.278Z,13.37
2023-04-07T05:01:45.275Z,14.72
2023-04-07T05:02:45.532Z,13.41
2023-04-07T05:03:45.341Z,14.78
2023-04-07T05:04:45.542Z,16.36
2023-04-07T05:05:45.349Z,16.57
2023-04-07T05:06:45.350Z,17.46
2023-04-07T05:07:45.393Z,17.53
2023-04-07T05:08:45.400Z,16.77
2023-04-07T05:09:45.406Z,17.27
2023-04-07T05:10:46.689Z,17.51
2023-04-07T05:11:45.493Z,17.28
2023-04-07T05:12:45.505Z,17.77
2023-04-07T05:13:45.513Z,16.17
2023-04-07T05:14:45.560Z,18.32
2023-04-07T05:15:45.606Z,19.68
2023-04-07T05:16:45.586Z,20.67
2023-04-07T05:17:45.685Z,22.28
2023-04-07T05:18:45.653Z,24.05
2023-04-07T05:19:45.654Z,27.38
2023-04-07T05:20:45.702Z,30.22
2023-04-07T05:21:45.704Z,31.70
2023-04-07T05:22:45.703Z,30.70
2023-04-07T05:23:45.719Z,32.97
2023-04-07T05:24:45.790Z,34.41
2023-04-07T05:25:45.751Z,34.10
2023-04-07T05:26:45.790Z,36.87
2023-04-07T05:27:45.820Z,36.17
2023-04-07T05:28:45.798Z,35.66
2023-04-07T05:29:45.821Z,36.37
2023-04-07T05:30:45.848Z,37.44
2023-04-07T05:31:45.927Z,36.59
2023-04-07T05:32:45.952Z,37.46
2023-04-07T05:33:45.906Z,34.72
2023-04-07T05:34:45.924Z,35.33
2023-04-07T05:35:45.990Z,33.41
2023-04-07T05:36:45.993Z,32.83
2023-04-07T05:37:46.019Z,33.21
2023-04-07T05:38:46.046Z,32.61
2023-04-07T05:39:46.080Z,29.07
2023-04-07T05:40:46.093Z,31.85
2023-04-07T05:41:46.112Z,32.63
2023-04-07T05:42:46.157Z,31.17
2023-04-07T05:43:46.175Z,29.84
2023-04-07T05:44:46.194Z,30.24
2023-04-07T05:45:46.280Z,29.61
2023-04-07T05:46:46.235Z,30.08
2023-04-07T05:47:46.313Z,30.81
2023-04-07T05:48:46.306Z,31.57
2023-04-07T05:49:46.306Z,32.50
2023-04-07T05:50:46.368Z,29.71
2023-04-07T05:51:47.466Z,30.52
2023-04-07T05:52:46.397Z,29.87
2023-04-07T05:53:46.429Z,29.32
2023-04-07T05:54:46.437Z,29.10
2023-04-07T05:55:46.494Z,29.48
2023-04-07T05:56:46.508Z,27.22
2023-04-07T05:57:46.526Z,29.78
2023-04-07T05:58:46.522Z,29.46
2023-04-07T05:59:46.534Z,28.95
2023-04-07T06:00:46.565Z,28.41
2023-04-07T06:01:46.720Z,28.95
2023-04-07T06:02:46.776Z,27.05
2023-04-07T06:03:46.824Z,27.89
2023-04-07T06:04:46.675Z,31.75
2023-04-07T06:05:46.711Z,32.60
2023-04-07T06:06:46.740Z,33.31
2023-04-07T06:07:46.734Z,32.92
2023-04-07T06:08:46.790Z,32.56
2023-04-07T06:09:46.788Z,32.33
2023-04-07T06:10:46.825Z,30.26
2023-04-07T06:11:46.855Z,31.14
2023-04-07T06:12:46.876Z,29.82
2023-04-07T06:13:47.184Z,30.67
2023-04-07T06:14:46.907Z,30.18
2023-04-07T06:15:46.929Z,28.84
2023-04-07T06:16:47.029Z,29.49
2023-04-07T06:17:47.060Z,29.10
2023-04-07T06:18:47.039Z,28.23
2023-04-07T06:19:47.034Z,29.26
2023-04-07T06:20:47.048Z,28.17
2023-04-07T06:21:47.069Z,29.97
2023-04-07T06:22:47.094Z,28.59
2023-04-07T06:23:47.471Z,27.19
2023-04-07T06:24:47.153Z,24.63
2023-04-07T06:25:47.187Z,26.01
2023-04-07T06:26:47.209Z,27.87
2023-04-07T06:27:47.215Z,26.63
2023-04-07T06:28:47.236Z,26.74
2023-04-07T06:29:47.267Z,27.66
2023-04-07T06:30:47.378Z,28.62
2023-04-07T06:31:47.321Z,29.89
2023-04-07T06:32:47.351Z,30.42
2023-04-07T06:33:47.612Z,30.20
2023-04-07T06:34:47.400Z,32.74
2023-04-07T06:35:47.428Z,34.52
2023-04-07T06:36:47.503Z,34.40
2023-04-07T06:37:47.458Z,32.78
2023-04-07T06:38:47.485Z,31.29
2023-04-07T06:39:47.506Z,31.10
2023-04-07T06:40:47.519Z,29.78
2023-04-07T06:41:47.536Z,30.00
2023-04-07T06:42:47.569Z,28.63
2023-04-07T06:43:48.208Z,28.80
2023-04-07T06:44:47.602Z,30.41
2023-04-07T06:45:47.695Z,30.19
2023-04-07T06:46:47.668Z,27.10
2023-04-07T06:47:47.691Z,28.95
2023-04-07T06:48:47.694Z,26.21
2023-04-07T06:49:47.718Z,27.71
2023-04-07T06:50:47.744Z,29.04
2023-04-07T06:51:47.768Z,27.77
2023-04-07T06:52:47.790Z,29.78
2023-04-07T06:53:47.952Z,28.87
2023-04-07T06:54:47.822Z,28.91
2023-04-07T06:55:47.834Z,27.74
2023-04-07T06:56:47.853Z,28.21
2023-04-07T06:57:47.891Z,27.20
2023-04-07T06:58:47.908Z,28.38
2023-04-07T06:59:47.930Z,30.30
2023-04-07T07:00:47.963Z,29.71
2023-04-07T07:01:48.051Z,29.93
2023-04-07T07:02:48.136Z,28.63
2023-04-07T07:03:48.371Z,28.65
2023-04-07T07:04:48.061Z,30.02
2023-04-07T07:05:49.508Z,28.42
2023-04-07T07:06:48.097Z,29.44
2023-04-07T07:07:48.115Z,29.30
2023-04-07T07:08:48.129Z,29.67
2023-04-07T07:09:48.173Z,31.64
2023-04-07T07:10:48.228Z,30.03
2023-04-07T07:11:48.196Z,29.51
2023-04-07T07:12:48.232Z,26.66
2023-04-07T07:13:48.340Z,24.93
2023-04-07T07:14:48.268Z,25.16
2023-04-07T07:15:48.354Z,27.55
2023-04-07T07:16:48.313Z,28.40
2023-04-07T07:17:48.425Z,26.23
2023-04-07T07:18:48.367Z,24.54
2023-04-07T07:19:48.359Z,24.75
2023-04-07T07:20:48.381Z,25.22
2023-04-07T07:21:48.400Z,25.19
2023-04-07T07:22:48.426Z,26.69
2023-04-07T07:23:48.862Z,24.95
2023-04-07T07:24:48.427Z,26.23
2023-04-07T07:25:48.451Z,25.10
2023-04-07T07:26:48.449Z,24.17
2023-04-07T07:27:48.474Z,22.32
2023-04-07T07:28:48.495Z,22.82
2023-04-07T07:29:48.478Z,21.38
2023-04-07T07:30:48.580Z,20.96
2023-04-07T07:31:48.488Z,21.56
2023-04-07T07:32:48.536Z,21.21
2023-04-07T07:33:48.620Z,22.06
2023-04-07T07:34:48.489Z,21.62
2023-04-07T07:35:48.508Z,21.48
2023-04-07T07:36:48.473Z,21.55
2023-04-07T07:37:48.485Z,23.13
2023-04-07T07:38:48.498Z,26.32
2023-04-07T07:39:48.474Z,29.90
2023-04-07T07:40:48.501Z,32.76
2023-04-07T07:41:48.490Z,33.57
2023-04-07T07:42:48.494Z,35.31
2023-04-07T07:43:48.780Z,36.92
2023-04-07T07:44:48.810Z,38.94
2023-04-07T07:45:48.576Z,36.85
2023-04-07T07:46:48.707Z,34.95
2023-04-07T07:47:48.778Z,33.59
2023-04-07T07:48:48.677Z,32.24
2023-04-07T07:49:48.750Z,29.53
2023-04-07T07:50:48.818Z,29.07
2023-04-07T07:51:48.846Z,29.07
2023-04-07T07:52:48.919Z,29.71
2023-04-07T07:53:49.216Z,29.80
2023-04-07T07:54:49.040Z,30.04
2023-04-07T07:55:49.112Z,30.94
2023-04-07T07:56:49.171Z,31.33
2023-04-07T07:57:49.227Z,30.18
2023-04-07T07:58:49.304Z,29.62
2023-04-07T07:59:49.336Z,31.82
2023-04-07T08:00:49.425Z,30.01
2023-04-07T08:01:49.472Z,27.13
2023-04-07T08:02:49.612Z,25.23
2023-04-07T08:03:49.987Z,26.25
2023-04-07T08:04:49.645Z,27.45
2023-04-07T08:05:49.655Z,26.63
2023-04-07T08:06:49.697Z,24.82
2023-04-07T08:07:49.756Z,25.36
2023-04-07T08:08:49.782Z,25.51
2023-04-07T08:09:49.835Z,26.03
2023-04-07T08:10:49.876Z,25.45
2023-04-07T08:11:49.913Z,25.81
2023-04-07T08:12:49.924Z,25.74
2023-04-07T08:13:50.205Z,28.47
2023-04-07T08:14:49.995Z,27.37
2023-04-07T08:15:50.037Z,22.07
2023-04-07T08:16:50.051Z,22.49
2023-04-07T08:17:50.086Z,22.45
2023-04-07T08:18:50.199Z,21.45
2023-04-07T08:19:50.098Z,20.75
2023-04-07T08:20:50.119Z,17.38
2023-04-07T08:21:50.118Z,14.17
2023-04-07T08:22:50.121Z,11.21
2023-04-07T08:23:50.447Z,9.24
2023-04-07T08:24:50.311Z,8.56
2023-04-07T08:25:50.178Z,8.83
2023-04-07T08:26:50.204Z,9.04
2023-04-07T08:27:50.247Z,8.42
2023-04-07T08:28:50.279Z,8.02
2023-04-07T08:29:50.316Z,7.85
2023-04-07T08:30:50.330Z,8.10
2023-04-07T08:31:50.386Z,8.26
2023-04-07T08:32:50.381Z,8.01
2023-04-07T08:33:50.613Z,8.58
2023-04-07T08:34:50.446Z,8.62
2023-04-07T08:35:50.522Z,8.51
2023-04-07T08:36:50.535Z,8.01
2023-04-07T08:37:50.579Z,8.38
2023-04-07T08:38:50.576Z,8.83
2023-04-07T08:39:50.629Z,8.28
2023-04-07T08:40:50.657Z,8.19
2023-04-07T08:41:50.704Z,8.54
2023-04-07T08:42:50.761Z,8.60
2023-04-07T08:43:50.811Z,8.89
2023-04-07T08:44:50.831Z,8.77
2023-04-07T08:45:53.103Z,8.56
2023-04-07T08:46:50.856Z,8.42
2023-04-07T08:47:50.915Z,9.11
2023-04-07T08:48:50.823Z,9.87
2023-04-07T08:49:50.799Z,9.15
2023-04-07T08:50:50.794Z,9.57
2023-04-07T08:51:50.800Z,8.81
2023-04-07T08:52:50.784Z,9.00
2023-04-07T08:53:50.775Z,9.31
2023-04-07T08:54:50.774Z,9.80
2023-04-07T08:55:50.775Z,9.85
2023-04-07T08:56:50.787Z,9.85
2023-04-07T08:57:50.745Z,10.34
2023-04-07T08:58:50.739Z,9.79
2023-04-07T08:59:50.739Z,10.27
2023-04-07T09:00:50.790Z,10.55
2023-04-07T09:01:50.753Z,10.27
2023-04-07T09:02:50.798Z,11.16
2023-04-07T09:03:51.058Z,11.54
2023-04-07T09:04:50.695Z,11.41
2023-04-07T09:05:50.694Z,11.61
2023-04-07T09:06:50.688Z,10.87
2023-04-07T09:07:50.694Z,10.29
2023-04-07T09:08:50.689Z,11.35
2023-04-07T09:09:50.669Z,10.93
2023-04-07T09:10:50.675Z,11.15
2023-04-07T09:11:50.661Z,12.38
2023-04-07T09:12:50.668Z,13.10
2023-04-07T09:13:50.661Z,12.93
2023-04-07T09:14:50.648Z,13.46
2023-04-07T09:15:50.630Z,14.24
2023-04-07T09:16:50.681Z,13.55
2023-04-07T09:17:50.634Z,13.32
2023-04-07T09:18:50.626Z,15.03
2023-04-07T09:19:50.615Z,14.79
2023-04-07T09:20:50.623Z,15.46
2023-04-07T09:21:50.586Z,15.12
2023-04-07T09:22:50.615Z,14.99
2023-04-07T09:23:50.734Z,15.91
2023-04-07T09:24:50.581Z,17.46
2023-04-07T09:25:50.574Z,15.63
2023-04-07T09:26:50.581Z,16.13
2023-04-07T09:27:50.625Z,17.62
2023-04-07T09:28:50.706Z,16.91
2023-04-07T09:29:50.743Z,18.50
2023-04-07T09:30:50.809Z,17.77
2023-04-07T09:31:50.891Z,15.93
2023-04-07T09:32:50.970Z,18.03
2023-04-07T09:33:50.966Z,17.95
2023-04-07T09:34:51.056Z,19.18
2023-04-07T09:35:51.158Z,18.20
2023-04-07T09:36:51.178Z,19.77
2023-04-07T09:37:51.256Z,20.48
2023-04-07T09:38:51.317Z,20.90
2023-04-07T09:39:51.358Z,20.10
2023-04-07T09:40:51.413Z,21.57
2023-04-07T09:41:51.481Z,20.08
2023-04-07T09:42:51.554Z,19.71
2023-04-07T09:43:51.613Z,21.08
2023-04-07T09:44:51.673Z,20.58
2023-04-07T09:45:51.788Z,20.26
2023-04-07T09:46:51.817Z,18.83
2023-04-07T09:47:52.002Z,18.99
2023-04-07T09:48:51.935Z,19.62
2023-04-07T09:49:52.006Z,21.33
2023-04-07T09:50:52.127Z,21.99
2023-04-07T09:51:52.136Z,21.62
2023-04-07T09:52:52.203Z,23.25
2023-04-07T09:53:52.326Z,22.70
2023-04-07T09:54:52.303Z,22.22
2023-04-07T09:55:52.391Z,22.76
2023-04-07T09:56:52.435Z,22.72
2023-04-07T09:57:52.508Z,21.10
2023-04-07T09:58:52.561Z,23.82
2023-04-07T09:59:52.605Z,22.65
2023-04-07T10:00:52.670Z,22.42
2023-04-07T10:01:54.395Z,21.59
2023-04-07T10:02:52.895Z,21.18
2023-04-07T10:03:52.719Z,22.29
2023-04-07T10:04:52.669Z,21.39
2023-04-07T10:05:52.653Z,21.76
2023-04-07T10:06:52.649Z,21.18
2023-04-07T10:07:52.661Z,21.12
2023-04-07T10:08:52.637Z,19.96
2023-04-07T10:09:52.632Z,19.38
2023-04-07T10:10:52.643Z,18.72
2023-04-07T10:11:52.624Z,18.90
2023-04-07T10:12:52.643Z,19.16
2023-04-07T10:13:52.622Z,16.24
2023-04-07T10:14:52.626Z,17.34
2023-04-07T10:15:52.621Z,16.92
2023-04-07T10:16:52.618Z,16.91
2023-04-07T10:17:52.609Z,18.13
2023-04-07T10:18:52.593Z,17.66
2023-04-07T10:19:52.582Z,18.49
2023-04-07T10:20:52.576Z,19.06
2023-04-07T10:21:52.573Z,19.72
2023-04-07T10:22:52.591Z,17.18
2023-04-07T10:23:52.559Z,18.30
2023-04-07T10:24:52.565Z,17.46
2023-04-07T10:25:52.672Z,17.13
2023-04-07T10:26:52.549Z,18.62
2023-04-07T10:27:52.535Z,17.00
2023-04-07T10:28:52.532Z,17.31
2023-04-07T10:29:52.547Z,16.35
2023-04-07T10:30:52.560Z,15.87
2023-04-07T10:31:52.483Z,14.77
2023-04-07T10:32:52.551Z,10.21
2023-04-07T10:33:52.868Z,8.79
2023-04-07T10:34:52.491Z,7.50
2023-04-07T10:35:52.502Z,6.98
2023-04-07T10:36:52.465Z,6.33
2023-04-07T10:37:52.527Z,6.47
2023-04-07T10:38:52.463Z,7.46
2023-04-07T10:39:52.451Z,5.94
2023-04-07T10:40:52.442Z,5.17
2023-04-07T10:41:52.420Z,4.96
2023-04-07T10:42:52.413Z,4.89
2023-04-07T10:43:52.416Z,4.55
2023-04-07T10:44:52.434Z,4.05
2023-04-07T10:45:52.478Z,4.47
2023-04-07T10:46:52.410Z,4.03
2023-04-07T10:47:52.501Z,4.11
2023-04-07T10:48:52.380Z,4.72
2023-04-07T10:49:52.356Z,4.71
2023-04-07T10:50:52.379Z,5.00
2023-04-07T10:51:52.375Z,5.18
2023-04-07T10:52:52.365Z,4.01
2023-04-07T10:53:52.468Z,4.43
2023-04-07T10:54:52.321Z,4.83
2023-04-07T10:55:52.317Z,3.35
2023-04-07T10:56:52.331Z,4.05
2023-04-07T10:57:52.320Z,3.96
2023-04-07T10:58:52.314Z,4.68
2023-04-07T10:59:52.298Z,4.41
2023-04-07T11:00:52.309Z,4.02
2023-04-07T11:01:52.340Z,3.79
2023-04-07T11:02:52.386Z,3.06
2023-04-07T11:03:52.475Z,2.77
2023-04-07T11:04:52.319Z,2.42
2023-04-07T11:05:52.264Z,2.06
2023-04-07T11:06:52.311Z,2.01
2023-04-07T11:07:52.368Z,1.86
2023-04-07T11:08:52.428Z,1.95
2023-04-07T11:09:52.446Z,1.98
2023-04-07T11:10:52.501Z,2.15
2023-04-07T11:11:52.547Z,2.70
2023-04-07T11:12:52.581Z,2.67
2023-04-07T11:13:52.684Z,2.71
2023-04-07T11:14:52.715Z,3.01
2023-04-07T11:15:52.823Z,3.50
2023-04-07T11:16:52.821Z,3.54
2023-04-07T11:17:52.915Z,4.38
2023-04-07T11:18:52.962Z,4.49
2023-04-07T11:19:53.012Z,3.95
2023-04-07T11:20:53.085Z,4.27
2023-04-07T11:21:53.132Z,4.26
2023-04-07T11:22:53.229Z,3.87
2023-04-07T11:23:53.263Z,4.77
2023-04-07T11:24:53.300Z,4.84
2023-04-07T11:25:53.384Z,5.00
2023-04-07T11:26:53.429Z,4.91
2023-04-07T11:27:53.492Z,4.42
2023-04-07T11:28:53.558Z,4.16
2023-04-07T11:29:53.610Z,4.36
2023-04-07T11:30:53.695Z,4.60
2023-04-07T11:31:53.796Z,5.42
2023-04-07T11:32:53.797Z,5.74
2023-04-07T11:33:53.873Z,5.69
2023-04-07T11:34:53.908Z,5.67
2023-04-07T11:35:54.014Z,6.10
2023-04-07T11:36:54.022Z,7.40
2023-04-07T11:37:54.101Z,7.33
2023-04-07T11:38:54.163Z,9.07
2023-04-07T11:39:54.236Z,9.26
2023-04-07T11:40:54.282Z,9.23
2023-04-07T11:41:54.356Z,9.24
2023-04-07T11:42:54.405Z,10.14
2023-04-07T11:43:54.466Z,10.45
2023-04-07T11:44:54.506Z,11.33
2023-04-07T11:45:54.629Z,10.67
2023-04-07T11:46:54.718Z,10.07
2023-04-07T11:47:54.712Z,10.82
2023-04-07T11:48:54.718Z,10.35
2023-04-07T11:49:54.755Z,9.03
2023-04-07T11:50:54.796Z,9.96
2023-04-07T11:51:54.823Z,9.11
2023-04-07T11:52:54.905Z,7.39
2023-04-07T11:53:54.892Z,8.80
2023-04-07T11:54:54.911Z,7.50
2023-04-07T11:55:54.964Z,7.25
2023-04-07T11:56:54.964Z,6.35
2023-04-07T11:57:54.980Z,6.26
2023-04-07T11:58:55.023Z,5.10
2023-04-07T11:59:55.065Z,5.12
2023-04-07T12:00:55.121Z,4.89
2023-04-07T12:01:57.708Z,5.24
2023-04-07T12:02:55.316Z,4.64
2023-04-07T12:03:55.231Z,4.23
2023-04-07T12:04:55.205Z,3.89
2023-04-07T12:05:55.124Z,4.89
2023-04-07T12:06:55.127Z,4.30
2023-04-07T12:07:55.102Z,4.05
2023-04-07T12:08:55.100Z,3.83
2023-04-07T12:09:55.076Z,3.02
2023-04-07T12:10:55.084Z,3.69
2023-04-07T12:11:55.063Z,3.69
2023-04-07T12:12:55.532Z,3.30
2023-04-07T12:13:55.063Z,2.16
2023-04-07T12:14:55.060Z,2.25
2023-04-07T12:15:55.074Z,2.03
2023-04-07T12:16:55.150Z,1.65
2023-04-07T12:17:55.076Z,2.04
2023-04-07T12:18:55.036Z,1.61
2023-04-07T12:19:55.032Z,1.62
2023-04-07T12:20:55.035Z,1.97
2023-04-07T12:21:55.022Z,1.89
2023-04-07T12:22:55.004Z,2.23
2023-04-07T12:23:55.002Z,2.41
2023-04-07T12:24:54.997Z,2.12
2023-04-07T12:25:54.996Z,2.09
2023-04-07T12:26:54.978Z,1.97
2023-04-07T12:27:54.977Z,2.01
2023-04-07T12:28:55.012Z,1.89
2023-04-07T12:29:54.956Z,2.17
2023-04-07T12:30:54.996Z,1.81
2023-04-07T12:31:55.013Z,2.38
2023-04-07T12:32:55.016Z,2.17
2023-04-07T12:33:55.024Z,2.29
2023-04-07T12:34:55.087Z,1.91
2023-04-07T12:35:55.209Z,2.33
2023-04-07T12:36:55.221Z,2.57
2023-04-07T12:37:55.283Z,2.29
2023-04-07T12:38:55.333Z,3.10
2023-04-07T12:39:55.396Z,2.97
2023-04-07T12:40:55.456Z,2.76
2023-04-07T12:41:55.543Z,2.75
2023-04-07T12:42:55.600Z,3.09
2023-04-07T12:43:55.658Z,3.41
2023-04-07T12:44:55.707Z,3.64
2023-04-07T12:45:55.785Z,2.90
2023-04-07T12:46:55.831Z,2.77
2023-04-07T12:47:55.951Z,3.58
2023-04-07T12:48:55.957Z,3.05
2023-04-07T12:49:56.026Z,2.84
2023-04-07T12:50:56.063Z,3.42
2023-04-07T12:51:56.134Z,2.79
2023-04-07T12:52:56.182Z,2.93
2023-04-07T12:53:56.229Z,3.92
2023-04-07T12:54:56.316Z,3.45
2023-04-07T12:55:56.368Z,3.22
2023-04-07T12:56:56.460Z,3.61
2023-04-07T12:57:56.486Z,3.19
2023-04-07T12:58:56.556Z,4.70